sensor_id;sensor_type;location;lat;lon;timestamp;P1;durP1;ratioP1;P2;durP2;ratioP2
61330;SDS011;57640;52.472;-1.950;2023-07-08T00:00:33;7.15;;;4.75;;
61330;SDS011;57640;52.472;-1.950;2023-07-08T00:03:39;6.57;;;5.07;;
61330;SDS011;57640;52.472;-1.950;2023-07-08T00:06:47;9.68;;;5.20;;
61330;SDS011;57640;52.472;-1.950;2023-07-08T00:12:58;8.27;;;5.00;;
61330;SDS011;57640;52.472;-1.950;2023-07-08T00:16:03;9.18;;;4.93;;
61330;SDS011;57640;52.472;-1.950;2023-07-08T00:19:09;7.93;;;4.88;;
61330;SDS011;57640;52.472;-1.950;2023-07-08T00:22:24;6.63;;;4.78;;
61330;SDS011;57640;52.472;-1.950;2023-07-08T00:25:30;6.72;;;4.70;;
61330;SDS011;57640;52.472;-1.950;2023-07-08T00:28:35;7.05;;;5.00;;
61330;SDS011;57640;52.472;-1.950;2023-07-08T00:31:44;8.70;;;4.80;;
61330;SDS011;57640;52.472;-1.950;2023-07-08T00:34:49;5.35;;;4.25;;
61330;SDS011;57640;52.472;-1.950;2023-07-08T00:37:57;7.03;;;4.97;;
61330;SDS011;57640;52.472;-1.950;2023-07-08T00:41:06;8.02;;;4.88;;
61330;SDS011;57640;52.472;-1.950;2023-07-08T00:44:13;8.85;;;4.38;;
61330;SDS011;57640;52.472;-1.950;2023-07-08T00:47:18;6.07;;;4.60;;
61330;SDS011;57640;52.472;-1.950;2023-07-08T00:50:24;12.40;;;4.75;;
61330;SDS011;57640;52.472;-1.950;2023-07-08T00:53:33;6.90;;;4.43;;
61330;SDS011;57640;52.472;-1.950;2023-07-08T00:56:39;7.13;;;5.00;;
61330;SDS011;57640;52.472;-1.950;2023-07-08T00:59:47;6.55;;;4.55;;
61330;SDS011;57640;52.472;-1.950;2023-07-08T01:02:55;6.68;;;4.60;;
61330;SDS011;57640;52.472;-1.950;2023-07-08T01:06:01;6.13;;;4.70;;
61330;SDS011;57640;52.472;-1.950;2023-07-08T01:09:10;5.55;;;4.70;;
61330;SDS011;57640;52.472;-1.950;2023-07-08T01:12:18;6.38;;;4.35;;
61330;SDS011;57640;52.472;-1.950;2023-07-08T01:15:25;5.93;;;4.30;;
61330;SDS011;57640;52.472;-1.950;2023-07-08T01:18:32;5.20;;;4.50;;
61330;SDS011;57640;52.472;-1.950;2023-07-08T01:24:53;6.97;;;4.30;;
61330;SDS011;57640;52.472;-1.950;2023-07-08T01:27:58;6.60;;;4.38;;
61330;SDS011;57640;52.472;-1.950;2023-07-08T01:31:04;4.63;;;3.88;;
61330;SDS011;57640;52.472;-1.950;2023-07-08T01:34:12;5.43;;;4.30;;
61330;SDS011;57640;52.472;-1.950;2023-07-08T01:37:19;5.07;;;4.10;;
61330;SDS011;57640;52.472;-1.950;2023-07-08T01:40:28;4.75;;;3.88;;
61330;SDS011;57640;52.472;-1.950;2023-07-08T01:43:34;5.20;;;4.00;;
61330;SDS011;57640;52.472;-1.950;2023-07-08T01:46:41;6.28;;;4.10;;
61330;SDS011;57640;52.472;-1.950;2023-07-08T01:49:47;6.45;;;3.88;;
61330;SDS011;57640;52.472;-1.950;2023-07-08T01:52:53;5.63;;;3.80;;
61330;SDS011;57640;52.472;-1.950;2023-07-08T01:56:02;5.22;;;4.03;;
61330;SDS011;57640;52.472;-1.950;2023-07-08T01:59:08;6.95;;;4.07;;
61330;SDS011;57640;52.472;-1.950;2023-07-08T02:02:13;5.93;;;3.95;;
61330;SDS011;57640;52.472;-1.950;2023-07-08T02:05:19;6.50;;;3.90;;
61330;SDS011;57640;52.472;-1.950;2023-07-08T02:08:24;4.78;;;3.70;;
61330;SDS011;57640;52.472;-1.950;2023-07-08T02:11:32;5.10;;;3.90;;
61330;SDS011;57640;52.472;-1.950;2023-07-08T02:14:38;5.88;;;3.92;;
61330;SDS011;57640;52.472;-1.950;2023-07-08T02:17:44;4.93;;;3.95;;
61330;SDS011;57640;52.472;-1.950;2023-07-08T02:20:50;5.50;;;3.80;;
61330;SDS011;57640;52.472;-1.950;2023-07-08T02:23:56;5.30;;;3.97;;
61330;SDS011;57640;52.472;-1.950;2023-07-08T02:27:04;5.75;;;3.78;;
61330;SDS011;57640;52.472;-1.950;2023-07-08T02:30:10;5.65;;;4.03;;
61330;SDS011;57640;52.472;-1.950;2023-07-08T02:33:15;4.95;;;3.92;;
61330;SDS011;57640;52.472;-1.950;2023-07-08T02:36:24;5.25;;;3.97;;
61330;SDS011;57640;52.472;-1.950;2023-07-08T02:39:32;6.00;;;3.83;;
61330;SDS011;57640;52.472;-1.950;2023-07-08T02:42:41;4.80;;;3.95;;
61330;SDS011;57640;52.472;-1.950;2023-07-08T02:45:48;5.63;;;3.72;;
61330;SDS011;57640;52.472;-1.950;2023-07-08T02:48:54;4.67;;;3.80;;
61330;SDS011;57640;52.472;-1.950;2023-07-08T02:51:59;5.88;;;3.80;;
61330;SDS011;57640;52.472;-1.950;2023-07-08T02:55:05;7.88;;;4.20;;
61330;SDS011;57640;52.472;-1.950;2023-07-08T02:58:15;5.90;;;4.07;;
61330;SDS011;57640;52.472;-1.950;2023-07-08T03:01:22;4.85;;;3.92;;
61330;SDS011;57640;52.472;-1.950;2023-07-08T03:04:31;4.85;;;3.78;;
61330;SDS011;57640;52.472;-1.950;2023-07-08T03:07:41;5.10;;;3.70;;
61330;SDS011;57640;52.472;-1.950;2023-07-08T03:10:47;5.20;;;3.78;;
61330;SDS011;57640;52.472;-1.950;2023-07-08T03:13:55;5.68;;;3.75;;
61330;SDS011;57640;52.472;-1.950;2023-07-08T03:17:00;6.65;;;4.15;;
61330;SDS011;57640;52.472;-1.950;2023-07-08T03:20:06;5.15;;;3.65;;
61330;SDS011;57640;52.472;-1.950;2023-07-08T03:23:12;6.57;;;4.10;;
61330;SDS011;57640;52.472;-1.950;2023-07-08T03:26:20;5.63;;;3.60;;
61330;SDS011;57640;52.472;-1.950;2023-07-08T03:29:28;5.40;;;3.90;;
61330;SDS011;57640;52.472;-1.950;2023-07-08T03:32:34;4.97;;;3.90;;
61330;SDS011;57640;52.472;-1.950;2023-07-08T03:35:40;4.95;;;3.65;;
61330;SDS011;57640;52.472;-1.950;2023-07-08T03:38:45;5.90;;;4.00;;
61330;SDS011;57640;52.472;-1.950;2023-07-08T03:41:51;5.13;;;3.90;;
61330;SDS011;57640;52.472;-1.950;2023-07-08T03:45:02;5.55;;;4.15;;
61330;SDS011;57640;52.472;-1.950;2023-07-08T03:48:08;5.07;;;4.10;;
61330;SDS011;57640;52.472;-1.950;2023-07-08T03:51:17;4.88;;;3.83;;
61330;SDS011;57640;52.472;-1.950;2023-07-08T03:54:26;5.40;;;3.90;;
61330;SDS011;57640;52.472;-1.950;2023-07-08T03:57:36;4.88;;;4.20;;
61330;SDS011;57640;52.472;-1.950;2023-07-08T04:00:44;5.43;;;3.92;;
61330;SDS011;57640;52.472;-1.950;2023-07-08T04:03:52;7.50;;;4.10;;
61330;SDS011;57640;52.472;-1.950;2023-07-08T04:06:58;5.85;;;3.92;;
61330;SDS011;57640;52.472;-1.950;2023-07-08T04:10:04;5.97;;;4.15;;
61330;SDS011;57640;52.472;-1.950;2023-07-08T04:13:10;6.30;;;4.07;;
61330;SDS011;57640;52.472;-1.950;2023-07-08T04:16:19;3.72;;;3.42;;
61330;SDS011;57640;52.472;-1.950;2023-07-08T04:19:26;4.80;;;3.67;;
61330;SDS011;57640;52.472;-1.950;2023-07-08T04:22:33;6.18;;;4.35;;
61330;SDS011;57640;52.472;-1.950;2023-07-08T04:25:38;5.88;;;4.05;;
61330;SDS011;57640;52.472;-1.950;2023-07-08T04:28:45;5.68;;;3.90;;
61330;SDS011;57640;52.472;-1.950;2023-07-08T04:31:53;5.32;;;4.13;;
61330;SDS011;57640;52.472;-1.950;2023-07-08T04:34:59;5.75;;;4.10;;
61330;SDS011;57640;52.472;-1.950;2023-07-08T04:38:06;6.10;;;4.15;;
61330;SDS011;57640;52.472;-1.950;2023-07-08T04:41:11;4.70;;;4.05;;
61330;SDS011;57640;52.472;-1.950;2023-07-08T04:44:17;6.07;;;4.20;;
61330;SDS011;57640;52.472;-1.950;2023-07-08T04:47:25;5.38;;;4.05;;
61330;SDS011;57640;52.472;-1.950;2023-07-08T04:50:31;5.15;;;4.20;;
61330;SDS011;57640;52.472;-1.950;2023-07-08T04:53:38;5.82;;;3.75;;
61330;SDS011;57640;52.472;-1.950;2023-07-08T04:56:44;4.88;;;4.10;;
61330;SDS011;57640;52.472;-1.950;2023-07-08T04:59:50;7.07;;;4.20;;
61330;SDS011;57640;52.472;-1.950;2023-07-08T05:03:00;7.15;;;4.13;;
61330;SDS011;57640;52.472;-1.950;2023-07-08T05:06:05;5.15;;;3.88;;
61330;SDS011;57640;52.472;-1.950;2023-07-08T05:09:11;6.25;;;4.35;;
61330;SDS011;57640;52.472;-1.950;2023-07-08T05:12:16;5.38;;;4.20;;
61330;SDS011;57640;52.472;-1.950;2023-07-08T05:15:22;5.22;;;4.15;;
61330;SDS011;57640;52.472;-1.950;2023-07-08T05:18:30;4.78;;;3.90;;
61330;SDS011;57640;52.472;-1.950;2023-07-08T05:21:37;5.05;;;4.13;;
61330;SDS011;57640;52.472;-1.950;2023-07-08T05:24:47;6.72;;;4.10;;
61330;SDS011;57640;52.472;-1.950;2023-07-08T05:27:56;5.72;;;3.85;;
61330;SDS011;57640;52.472;-1.950;2023-07-08T05:31:02;5.23;;;3.90;;
61330;SDS011;57640;52.472;-1.950;2023-07-08T05:34:13;6.75;;;4.25;;
61330;SDS011;57640;52.472;-1.950;2023-07-08T05:37:19;7.75;;;4.22;;
61330;SDS011;57640;52.472;-1.950;2023-07-08T05:43:32;6.03;;;4.68;;
61330;SDS011;57640;52.472;-1.950;2023-07-08T05:46:38;8.82;;;4.53;;
61330;SDS011;57640;52.472;-1.950;2023-07-08T05:49:46;7.55;;;4.97;;
61330;SDS011;57640;52.472;-1.950;2023-07-08T05:52:51;8.93;;;5.15;;
61330;SDS011;57640;52.472;-1.950;2023-07-08T05:55:57;5.40;;;4.38;;
61330;SDS011;57640;52.472;-1.950;2023-07-08T05:59:02;8.27;;;4.95;;
61330;SDS011;57640;52.472;-1.950;2023-07-08T06:02:08;6.80;;;4.75;;
61330;SDS011;57640;52.472;-1.950;2023-07-08T06:05:17;6.43;;;4.60;;
61330;SDS011;57640;52.472;-1.950;2023-07-08T06:08:23;5.40;;;4.57;;
61330;SDS011;57640;52.472;-1.950;2023-07-08T06:11:29;5.97;;;4.80;;
61330;SDS011;57640;52.472;-1.950;2023-07-08T06:14:34;6.72;;;4.80;;
61330;SDS011;57640;52.472;-1.950;2023-07-08T06:17:43;6.93;;;4.40;;
61330;SDS011;57640;52.472;-1.950;2023-07-08T06:20:54;5.95;;;4.38;;
61330;SDS011;57640;52.472;-1.950;2023-07-08T06:23:59;6.72;;;4.75;;
61330;SDS011;57640;52.472;-1.950;2023-07-08T06:27:07;6.43;;;4.80;;
61330;SDS011;57640;52.472;-1.950;2023-07-08T06:30:13;6.15;;;4.95;;
61330;SDS011;57640;52.472;-1.950;2023-07-08T06:33:18;6.68;;;4.78;;
61330;SDS011;57640;52.472;-1.950;2023-07-08T06:36:26;6.43;;;4.18;;
61330;SDS011;57640;52.472;-1.950;2023-07-08T06:39:32;6.95;;;4.38;;
61330;SDS011;57640;52.472;-1.950;2023-07-08T06:42:38;6.60;;;4.60;;
61330;SDS011;57640;52.472;-1.950;2023-07-08T06:45:44;5.68;;;4.60;;
61330;SDS011;57640;52.472;-1.950;2023-07-08T06:48:49;6.65;;;4.47;;
61330;SDS011;57640;52.472;-1.950;2023-07-08T06:51:58;6.35;;;4.50;;
61330;SDS011;57640;52.472;-1.950;2023-07-08T06:55:05;5.32;;;4.38;;
61330;SDS011;57640;52.472;-1.950;2023-07-08T06:58:11;7.25;;;4.75;;
61330;SDS011;57640;52.472;-1.950;2023-07-08T07:01:18;5.40;;;4.40;;
61330;SDS011;57640;52.472;-1.950;2023-07-08T07:04:24;6.25;;;3.90;;
61330;SDS011;57640;52.472;-1.950;2023-07-08T07:07:42;5.72;;;3.88;;
61330;SDS011;57640;52.472;-1.950;2023-07-08T07:10:48;4.35;;;3.78;;
61330;SDS011;57640;52.472;-1.950;2023-07-08T07:13:53;5.28;;;3.75;;
61330;SDS011;57640;52.472;-1.950;2023-07-08T07:16:58;7.25;;;3.80;;
61330;SDS011;57640;52.472;-1.950;2023-07-08T07:20:04;5.13;;;3.92;;
61330;SDS011;57640;52.472;-1.950;2023-07-08T07:23:15;5.10;;;3.70;;
61330;SDS011;57640;52.472;-1.950;2023-07-08T07:26:20;5.25;;;3.80;;
61330;SDS011;57640;52.472;-1.950;2023-07-08T07:29:26;4.25;;;3.65;;
61330;SDS011;57640;52.472;-1.950;2023-07-08T07:32:31;4.82;;;3.95;;
61330;SDS011;57640;52.472;-1.950;2023-07-08T07:35:42;5.80;;;4.18;;
61330;SDS011;57640;52.472;-1.950;2023-07-08T07:38:50;5.18;;;4.30;;
61330;SDS011;57640;52.472;-1.950;2023-07-08T07:41:55;4.55;;;3.90;;
61330;SDS011;57640;52.472;-1.950;2023-07-08T07:45:01;5.90;;;4.15;;
61330;SDS011;57640;52.472;-1.950;2023-07-08T07:48:06;7.05;;;4.35;;
61330;SDS011;57640;52.472;-1.950;2023-07-08T07:51:12;5.68;;;4.07;;
61330;SDS011;57640;52.472;-1.950;2023-07-08T07:54:20;6.13;;;4.18;;
61330;SDS011;57640;52.472;-1.950;2023-07-08T07:57:26;5.53;;;4.35;;
61330;SDS011;57640;52.472;-1.950;2023-07-08T08:00:31;6.65;;;4.20;;
61330;SDS011;57640;52.472;-1.950;2023-07-08T08:03:37;5.10;;;3.75;;
61330;SDS011;57640;52.472;-1.950;2023-07-08T08:06:42;5.28;;;4.03;;
61330;SDS011;57640;52.472;-1.950;2023-07-08T08:09:52;5.03;;;3.80;;
61330;SDS011;57640;52.472;-1.950;2023-07-08T08:12:57;5.10;;;3.47;;
61330;SDS011;57640;52.472;-1.950;2023-07-08T08:16:03;4.18;;;3.60;;
61330;SDS011;57640;52.472;-1.950;2023-07-08T08:19:09;6.15;;;3.75;;
61330;SDS011;57640;52.472;-1.950;2023-07-08T08:22:14;4.40;;;3.60;;
61330;SDS011;57640;52.472;-1.950;2023-07-08T08:25:23;7.18;;;3.78;;
61330;SDS011;57640;52.472;-1.950;2023-07-08T08:28:29;4.93;;;3.28;;
61330;SDS011;57640;52.472;-1.950;2023-07-08T08:31:34;4.15;;;3.47;;
61330;SDS011;57640;52.472;-1.950;2023-07-08T08:34:39;4.50;;;3.30;;
61330;SDS011;57640;52.472;-1.950;2023-07-08T08:37:47;5.40;;;3.20;;
61330;SDS011;57640;52.472;-1.950;2023-07-08T08:40:55;5.00;;;3.30;;
61330;SDS011;57640;52.472;-1.950;2023-07-08T08:44:00;13.10;;;3.85;;
61330;SDS011;57640;52.472;-1.950;2023-07-08T08:47:10;9.10;;;3.58;;
61330;SDS011;57640;52.472;-1.950;2023-07-08T08:50:20;11.57;;;3.88;;
61330;SDS011;57640;52.472;-1.950;2023-07-08T08:53:27;6.82;;;3.40;;
61330;SDS011;57640;52.472;-1.950;2023-07-08T08:56:41;6.22;;;3.47;;
61330;SDS011;57640;52.472;-1.950;2023-07-08T08:59:51;6.07;;;3.58;;
61330;SDS011;57640;52.472;-1.950;2023-07-08T09:02:58;5.00;;;3.30;;
61330;SDS011;57640;52.472;-1.950;2023-07-08T09:06:12;6.22;;;3.92;;
61330;SDS011;57640;52.472;-1.950;2023-07-08T09:09:20;5.18;;;3.45;;
61330;SDS011;57640;52.472;-1.950;2023-07-08T09:12:32;5.85;;;3.38;;
61330;SDS011;57640;52.472;-1.950;2023-07-08T09:15:38;4.53;;;3.25;;
61330;SDS011;57640;52.472;-1.950;2023-07-08T09:18:48;4.90;;;3.22;;
61330;SDS011;57640;52.472;-1.950;2023-07-08T09:21:59;4.47;;;3.20;;
61330;SDS011;57640;52.472;-1.950;2023-07-08T09:28:14;4.03;;;2.95;;
61330;SDS011;57640;52.472;-1.950;2023-07-08T09:31:22;5.03;;;2.92;;
61330;SDS011;57640;52.472;-1.950;2023-07-08T09:34:36;5.18;;;3.10;;
61330;SDS011;57640;52.472;-1.950;2023-07-08T09:37:44;5.07;;;3.00;;
61330;SDS011;57640;52.472;-1.950;2023-07-08T09:40:51;4.18;;;2.88;;
61330;SDS011;57640;52.472;-1.950;2023-07-08T09:47:17;4.55;;;3.00;;
61330;SDS011;57640;52.472;-1.950;2023-07-08T09:50:28;4.05;;;2.85;;
61330;SDS011;57640;52.472;-1.950;2023-07-08T09:53:36;4.60;;;3.15;;
61330;SDS011;57640;52.472;-1.950;2023-07-08T09:56:42;4.25;;;2.95;;
61330;SDS011;57640;52.472;-1.950;2023-07-08T09:59:49;5.15;;;3.03;;
61330;SDS011;57640;52.472;-1.950;2023-07-08T10:03:01;3.85;;;2.80;;
61330;SDS011;57640;52.472;-1.950;2023-07-08T10:06:14;3.88;;;2.88;;
61330;SDS011;57640;52.472;-1.950;2023-07-08T10:09:23;5.25;;;2.92;;
61330;SDS011;57640;52.472;-1.950;2023-07-08T10:12:29;4.40;;;2.97;;
61330;SDS011;57640;52.472;-1.950;2023-07-08T10:15:36;4.32;;;2.78;;
61330;SDS011;57640;52.472;-1.950;2023-07-08T10:18:45;4.25;;;2.88;;
61330;SDS011;57640;52.472;-1.950;2023-07-08T10:21:55;4.72;;;3.08;;
61330;SDS011;57640;52.472;-1.950;2023-07-08T10:25:08;4.10;;;2.72;;
61330;SDS011;57640;52.472;-1.950;2023-07-08T10:28:20;4.05;;;2.60;;
61330;SDS011;57640;52.472;-1.950;2023-07-08T10:31:29;3.30;;;2.70;;
61330;SDS011;57640;52.472;-1.950;2023-07-08T10:34:41;4.35;;;2.92;;
61330;SDS011;57640;52.472;-1.950;2023-07-08T10:37:55;6.20;;;3.10;;
61330;SDS011;57640;52.472;-1.950;2023-07-08T10:41:08;4.35;;;3.03;;
61330;SDS011;57640;52.472;-1.950;2023-07-08T10:44:17;6.70;;;3.00;;
61330;SDS011;57640;52.472;-1.950;2023-07-08T10:47:29;5.15;;;2.83;;
61330;SDS011;57640;52.472;-1.950;2023-07-08T10:50:45;5.50;;;3.35;;
61330;SDS011;57640;52.472;-1.950;2023-07-08T10:54:05;5.50;;;2.95;;
61330;SDS011;57640;52.472;-1.950;2023-07-08T10:57:21;5.25;;;3.10;;
61330;SDS011;57640;52.472;-1.950;2023-07-08T11:00:31;5.40;;;3.08;;
61330;SDS011;57640;52.472;-1.950;2023-07-08T11:03:44;4.22;;;3.25;;
61330;SDS011;57640;52.472;-1.950;2023-07-08T11:06:57;6.40;;;3.50;;
61330;SDS011;57640;52.472;-1.950;2023-07-08T11:10:05;5.60;;;3.17;;
61330;SDS011;57640;52.472;-1.950;2023-07-08T11:13:14;6.17;;;3.33;;
61330;SDS011;57640;52.472;-1.950;2023-07-08T11:16:22;7.47;;;3.40;;
61330;SDS011;57640;52.472;-1.950;2023-07-08T11:19:37;7.05;;;3.67;;
61330;SDS011;57640;52.472;-1.950;2023-07-08T11:22:59;6.03;;;3.22;;
61330;SDS011;57640;52.472;-1.950;2023-07-08T11:26:20;7.13;;;3.67;;
